Terminal Aerodrome Forecast
Issued by NWS

Home | Current Version | Previous Version | Text Only | Print | Product List | Glossary On
Versions: 1 2 3 4 5 6 7 8 9 10 11 12 13 14 15 16 17 18 19 20
194
FTUS43 KILX 102138 AAA
TAFCMI
TAF AMD
KCMI 102138Z 1022/1118 28010KT P6SM SCT090 OVC250
     FM110500 35006KT P6SM SCT090=

USA.gov is the U.S. government's official web portal to all federal, state and local government web resources and services.